Time;durP1;ratioP1;P1;durP2;ratioP2;P2;SDS_P1;SDS_P2;PMS_P1;PMS_P2;Temp;Humidity;BMP_temperature;BMP_pressure;BME280_temperature;BME280_humidity;BME280_pressure;Samples;Min_cycle;Max_cycle;Signal;HPM_P1;HPM_P2
2020/12/28 00:01:18;;;;;;;5.90;2.20;;;6.00;99.90;;;4.99;90.45;97449.94;4102713;29;20038;-69
2020/12/28 00:03:19;;;;;;;5.45;2.10;;;6.00;99.90;;;5.08;89.81;97445.34;4102726;29;20027;-69
2020/12/28 00:05:21;;;;;;;4.70;2.28;;;5.90;99.90;;;5.12;89.69;97444.72;4119752;28;20050;-69
2020/12/28 00:07:22;;;;;;;4.18;2.58;;;5.90;99.90;;;5.37;88.66;97427.44;4102582;28;20558;-69
2020/12/28 00:09:23;;;;;;;6.10;1.90;;;5.90;99.90;;;5.33;87.77;97436.69;4086696;29;20036;-69
2020/12/28 00:11:23;;;;;;;4.18;1.80;;;6.00;99.90;;;5.44;87.25;97437.84;4119784;28;20570;-69
2020/12/28 00:13:24;;;;;;;4.95;2.30;;;6.00;99.90;;;5.08;89.01;97453.19;4102431;29;20110;-68
2020/12/28 00:15:28;;;;;;;5.30;2.08;;;5.90;99.90;;;5.20;88.29;97451.53;4119676;28;20506;-69
2020/12/28 00:17:29;;;;;;;4.63;2.15;;;5.90;99.90;;;5.23;88.26;97457.19;4119720;28;20375;-69
2020/12/28 00:19:30;;;;;;;4.55;2.17;;;5.90;99.90;;;5.22;87.73;97458.19;4102502;29;20059;-69
2020/12/28 00:21:31;;;;;;;5.05;2.20;;;5.90;99.90;;;5.06;88.33;97463.81;4102480;29;20091;-69
2020/12/28 00:23:32;;;;;;;4.50;1.85;;;5.80;99.90;;;4.85;89.18;97458.78;4102442;29;20019;-69
2020/12/28 00:25:32;;;;;;;5.43;1.85;;;5.80;99.90;;;4.94;89.05;97462.81;4102523;29;20055;-69
2020/12/28 00:27:34;;;;;;;6.30;3.30;;;5.70;99.90;;;5.07;88.58;97457.59;4088686;29;20023;-69
2020/12/28 00:29:35;;;;;;;7.05;2.55;;;5.70;99.90;;;5.21;87.93;97453.97;4122851;28;20105;-69
2020/12/28 00:31:36;;;;;;;5.85;2.33;;;5.70;99.90;;;5.29;87.47;97472.06;4122797;28;20030;-69
2020/12/28 00:33:38;;;;;;;6.32;2.22;;;5.80;99.90;;;5.25;86.23;97457.81;4105790;28;20036;-69
2020/12/28 00:35:39;;;;;;;3.72;2.00;;;5.70;99.90;;;5.28;86.59;97474.88;4122853;28;20038;-69
2020/12/28 00:37:40;;;;;;;6.22;2.80;;;5.90;99.90;;;5.11;86.81;97482.31;4105375;29;20028;-69
2020/12/28 00:39:42;;;;;;;5.97;1.92;;;5.80;99.90;;;5.00;86.54;97480.28;4122432;28;20031;-69
2020/12/28 00:41:42;;;;;;;5.07;2.42;;;5.70;99.90;;;4.96;87.43;97477.28;4122678;28;20046;-69
2020/12/28 00:43:44;;;;;;;3.15;1.83;;;5.80;99.90;;;5.07;86.76;97475.88;4122470;28;20023;-69
2020/12/28 00:45:46;;;;;;;3.83;2.10;;;5.70;99.90;;;5.03;86.60;97482.50;4122660;28;20482;-69
2020/12/28 00:47:46;;;;;;;3.85;1.63;;;5.70;99.90;;;4.84;87.17;97502.38;4125114;28;20029;-69
2020/12/28 00:49:47;;;;;;;4.82;2.28;;;5.70;99.90;;;4.92;87.16;97496.97;4122689;28;20492;-69
2020/12/28 00:51:48;;;;;;;6.68;1.92;;;5.60;99.90;;;4.83;87.59;97486.91;4122636;28;20123;-69
2020/12/28 00:53:49;;;;;;;6.43;2.15;;;5.60;99.90;;;4.68;87.98;97494.13;4122588;28;20042;-68
2020/12/28 00:55:50;;;;;;;6.20;2.10;;;5.50;99.90;;;4.73;86.57;97476.03;4089263;29;20036;-69
2020/12/28 00:57:51;;;;;;;5.28;2.50;;;5.50;99.90;;;4.74;87.35;97480.28;4122003;28;20086;-69
2020/12/28 00:59:52;;;;;;;7.40;2.72;;;5.40;99.90;;;4.61;87.70;97480.25;4105427;29;20015;-69
2020/12/28 01:01:57;;;;;;;8.32;3.35;;;5.40;99.90;;;4.75;86.10;97479.28;4122409;28;20033;-69
2020/12/28 01:03:58;;;;;;;6.72;2.53;;;5.40;99.90;;;4.74;87.17;97488.91;4105116;29;20023;-69
2020/12/28 01:05:59;;;;;;;6.13;2.70;;;5.40;99.90;;;4.78;87.10;97478.88;4105287;29;20502;-69
2020/12/28 01:08:00;;;;;;;4.25;2.25;;;5.30;99.90;;;4.77;86.32;97482.50;4122265;28;20030;-69
2020/12/28 01:10:01;;;;;;;8.10;2.55;;;5.30;99.90;;;4.77;86.70;97503.38;4122268;28;20483;-69
2020/12/28 01:12:02;;;;;;;6.72;2.42;;;5.30;99.90;;;4.83;86.13;97503.41;4104803;29;20027;-69
2020/12/28 01:14:03;;;;;;;6.97;2.65;;;5.30;99.90;;;4.73;86.88;97500.34;4105192;29;20031;-69
2020/12/28 01:16:10;;;;;;;6.28;2.88;;;5.30;99.90;;;4.61;86.60;97488.88;4122245;28;20067;-69
2020/12/28 01:18:11;;;;;;;4.40;2.10;;;5.30;99.90;;;4.74;86.63;97488.09;4104844;29;20035;-69
2020/12/28 01:20:12;;;;;;;5.90;2.72;;;5.30;99.90;;;4.58;86.75;97504.13;4121961;28;20027;-69
2020/12/28 01:22:13;;;;;;;7.22;3.30;;;5.30;99.90;;;4.58;87.41;97496.28;4122176;28;20031;-69
2020/12/28 01:24:14;;;;;;;6.10;2.35;;;5.20;99.90;;;4.81;86.12;97500.16;4104995;29;20023;-69
2020/12/28 01:26:16;;;;;;;7.47;3.00;;;5.20;99.90;;;4.68;86.42;97494.13;4121873;28;20046;-69
2020/12/28 01:28:17;;;;;;;5.60;2.13;;;5.20;99.90;;;4.55;86.38;97483.63;4121638;28;20055;-69
2020/12/28 01:30:18;;;;;;;10.70;2.50;;;5.20;99.90;;;4.59;87.06;97500.53;4122140;28;20035;-69
2020/12/28 01:32:19;;;;;;;6.53;2.75;;;5.20;99.90;;;4.76;85.43;97491.31;4121864;28;20034;-69
2020/12/28 01:34:21;;;;;;;11.27;2.70;;;5.20;99.90;;;4.51;86.37;97490.28;4121920;28;20479;-69
2020/12/28 01:36:22;;;;;;;6.10;2.00;;;5.20;99.90;;;4.55;86.45;97481.03;4121714;28;20027;-69
2020/12/28 01:38:23;;;;;;;6.38;2.10;;;5.20;99.90;;;4.57;86.43;97482.44;4104521;28;20040;-69
2020/12/28 01:40:24;;;;;;;4.57;2.22;;;5.10;99.90;;;4.51;86.57;97485.06;4121640;28;20085;-69
2020/12/28 01:42:25;;;;;;;6.28;2.53;;;5.10;99.90;;;4.39;86.79;97484.81;4104304;28;20098;-69
2020/12/28 01:44:26;;;;;;;8.82;3.13;;;5.10;99.90;;;4.52;86.80;97490.06;4121683;28;20038;-69
2020/12/28 01:46:29;;;;;;;7.85;3.05;;;5.00;99.90;;;4.54;87.01;97487.28;4121711;28;20031;-69
2020/12/28 01:48:33;;;;;;;8.02;2.90;;;5.00;99.90;;;4.70;84.68;97489.50;4104412;28;20039;-69
2020/12/28 01:50:34;;;;;;;5.32;2.53;;;5.10;99.90;;;4.65;85.79;97478.84;4104334;28;20030;-69
2020/12/28 01:52:35;;;;;;;5.32;3.55;;;5.10;99.90;;;4.51;85.38;97485.06;4104282;29;20535;-69
2020/12/28 01:54:36;;;;;;;6.28;2.60;;;5.10;99.90;;;4.41;86.24;97498.47;4104247;28;20059;-69
2020/12/28 01:56:40;;;;;;;11.23;3.55;;;5.10;99.90;;;4.39;86.43;97493.44;4121292;28;20070;-69
2020/12/28 01:58:41;;;;;;;5.30;2.43;;;5.00;99.90;;;4.44;86.07;97491.06;4104341;28;20087;-69
2020/12/28 02:00:42;;;;;;;8.98;3.92;;;5.00;99.90;;;4.39;85.90;97498.66;4104202;29;20267;-69
2020/12/28 02:02:43;;;;;;;6.95;3.30;;;5.10;99.90;;;4.33;86.13;97504.66;4104332;29;20538;-69
2020/12/28 02:04:44;;;;;;;10.90;2.67;;;5.00;99.90;;;4.31;86.88;97498.84;4104180;28;20125;-69
2020/12/28 02:06:45;;;;;;;6.53;2.28;;;5.00;99.90;;;4.53;86.37;97496.09;4104189;29;20019;-69
2020/12/28 02:08:46;;;;;;;10.18;2.70;;;5.00;99.90;;;4.45;85.84;97497.88;4104093;29;20106;-69
2020/12/28 02:10:47;;;;;;;9.80;3.25;;;5.00;99.90;;;4.41;85.78;97514.94;4104125;29;20027;-69
2020/12/28 02:12:48;;;;;;;8.60;2.70;;;5.00;99.90;;;4.35;86.08;97509.69;4087895;29;20042;-69
2020/12/28 02:14:49;;;;;;;7.03;2.58;;;5.10;99.90;;;4.43;86.80;97504.28;4121105;28;20434;-69
2020/12/28 02:16:50;;;;;;;6.63;3.05;;;5.00;99.90;;;4.39;86.32;97501.25;4103914;29;20075;-69
2020/12/28 02:18:51;;;;;;;7.18;2.45;;;5.00;99.90;;;4.44;85.96;97508.50;4121157;28;20045;-69
2020/12/28 02:20:51;;;;;;;10.18;3.30;;;5.00;99.90;;;4.26;87.02;97505.63;4103874;28;20496;-69
2020/12/28 02:22:52;;;;;;;17.92;4.65;;;5.00;99.90;;;4.39;85.99;97500.47;4121101;28;20018;-69
2020/12/28 02:24:53;;;;;;;7.35;2.20;;;5.00;99.90;;;4.28;86.45;97496.63;4121050;28;20037;-69
2020/12/28 02:26:54;;;;;;;9.35;4.18;;;5.00;99.90;;;4.52;85.47;97510.94;4120693;28;20023;-69
2020/12/28 02:28:55;;;;;;;16.52;4.13;;;5.00;99.90;;;4.57;85.49;97512.97;4119825;28;20384;-69
2020/12/28 02:30:56;;;;;;;7.15;3.00;;;5.10;99.90;;;4.42;86.36;97518.34;4103914;29;20114;-69
2020/12/28 02:32:57;;;;;;;10.30;3.55;;;5.00;99.90;;;4.42;85.92;97508.69;4119714;28;20027;-69
2020/12/28 02:34:58;;;;;;;8.65;2.78;;;5.10;99.90;;;4.31;86.21;97524.94;4103583;29;20118;-69
2020/12/28 02:36:59;;;;;;;14.38;3.00;;;5.10;99.90;;;4.29;86.25;97521.72;4120887;28;20041;-69
2020/12/28 02:38:59;;;;;;;6.50;2.63;;;5.10;99.90;;;4.44;85.77;97532.81;4120873;28;20034;-69
2020/12/28 02:41:02;;;;;;;5.57;2.28;;;5.10;99.90;;;4.44;85.05;97535.41;4120667;28;20026;-69
2020/12/28 02:43:03;;;;;;;12.63;3.40;;;5.10;99.90;;;4.33;85.87;97543.00;4119098;28;20118;-69
2020/12/28 02:45:04;;;;;;;8.18;3.45;;;5.10;99.90;;;4.47;85.01;97529.81;4103389;29;20078;-69
2020/12/28 02:47:05;;;;;;;6.15;2.80;;;5.20;99.90;;;4.53;85.25;97535.25;4103550;29;20067;-69
2020/12/28 02:49:05;;;;;;;6.80;2.92;;;5.20;99.90;;;4.54;84.54;97537.63;4122450;28;20027;-69
2020/12/28 02:51:06;;;;;;;9.23;2.85;;;5.10;99.90;;;4.31;85.38;97550.19;4103311;28;20380;-69
2020/12/28 02:53:07;;;;;;;7.93;2.60;;;5.10;99.90;;;4.11;86.16;97550.13;4120738;28;20042;-69
2020/12/28 02:55:08;;;;;;;7.15;3.25;;;5.00;99.90;;;4.33;85.31;97548.22;4120588;28;20062;-69
2020/12/28 02:57:09;;;;;;;14.52;3.85;;;5.00;99.90;;;4.28;85.26;97546.19;4120135;28;20035;-69
2020/12/28 02:59:10;;;;;;;5.20;2.45;;;4.90;99.90;;;4.51;84.06;97534.63;4120437;28;20023;-69
2020/12/28 03:01:11;;;;;;;9.95;2.75;;;5.00;99.90;;;4.48;83.70;97531.41;4120819;28;20447;-69
2020/12/28 03:03:12;;;;;;;6.82;2.58;;;5.00;99.90;;;4.38;83.95;97538.81;4120558;28;20106;-69
2020/12/28 03:05:13;;;;;;;6.75;3.65;;;5.00;99.90;;;4.36;84.50;97550.44;4120496;28;20026;-69
2020/12/28 03:07:13;;;;;;;6.07;2.60;;;5.00;99.90;;;4.28;84.63;97559.22;4103159;29;20049;-69
2020/12/28 03:09:14;;;;;;;10.98;2.53;;;5.00;99.90;;;4.24;84.70;97550.16;4103291;28;20031;-69
2020/12/28 03:11:15;;;;;;;9.18;2.47;;;4.90;99.90;;;4.21;85.04;97565.44;4120415;28;20038;-69
2020/12/28 03:13:16;;;;;;;7.47;2.75;;;4.90;99.90;;;4.31;84.87;97558.03;4102937;29;20063;-68
2020/12/28 03:15:17;;;;;;;8.38;2.45;;;4.90;99.90;;;4.04;85.35;97556.28;4120256;28;20434;-69
2020/12/28 03:17:18;;;;;;;8.57;3.08;;;4.80;99.90;;;4.22;85.19;97554.78;4120297;28;20062;-69
2020/12/28 03:19:19;;;;;;;6.63;2.88;;;4.80;99.90;;;4.14;85.17;97560.16;4103159;29;20112;-69
2020/12/28 03:21:19;;;;;;;5.32;2.58;;;4.80;99.90;;;4.13;85.69;97558.56;4120133;28;20027;-68
2020/12/28 03:23:20;;;;;;;7.10;3.58;;;4.80;99.90;;;4.23;84.61;97564.22;4120145;28;20398;-68
2020/12/28 03:25:21;;;;;;;10.05;3.03;;;4.80;99.90;;;3.88;85.65;97566.03;4102948;29;20054;-69
2020/12/28 03:27:22;;;;;;;9.25;2.70;;;4.70;99.90;;;4.03;85.34;97562.53;4120017;28;20065;-69
2020/12/28 03:29:23;;;;;;;8.30;3.53;;;4.70;99.90;;;4.17;84.62;97566.81;4102936;29;20082;-69
2020/12/28 03:31:28;;;;;;;7.03;3.53;;;4.70;99.90;;;4.13;84.02;97563.78;4103009;28;20027;-69
2020/12/28 03:33:29;;;;;;;11.20;3.30;;;4.70;99.90;;;4.06;85.43;97570.75;4102814;28;20474;-69
2020/12/28 03:35:30;;;;;;;9.95;3.05;;;4.70;99.90;;;4.09;84.20;97567.75;4120029;28;20023;-69
2020/12/28 03:37:30;;;;;;;11.30;4.38;;;4.60;99.90;;;4.05;84.97;97571.75;4119923;28;20526;-69
2020/12/28 03:39:33;;;;;;;7.18;3.75;;;4.60;99.90;;;4.16;84.81;97576.44;4102927;29;20027;-69
2020/12/28 03:41:34;;;;;;;13.93;3.75;;;4.60;99.90;;;4.10;84.63;97571.97;4119574;28;20030;-69
2020/12/28 03:43:35;;;;;;;6.00;2.78;;;4.60;99.90;;;3.98;85.05;97559.66;4102834;29;20027;-69
2020/12/28 03:45:36;;;;;;;10.98;4.40;;;4.60;99.90;;;4.10;84.56;97558.13;4120080;28;20031;-69
2020/12/28 03:47:48;;;;;;;10.02;2.92;;;4.60;99.90;;;4.05;84.51;97563.13;4119888;28;20053;-69
2020/12/28 03:49:49;;;;;;;10.27;2.72;;;4.70;99.90;;;3.96;85.35;97559.06;4107367;28;20041;-68
2020/12/28 03:51:50;;;;;;;11.88;2.78;;;4.60;99.90;;;3.90;84.97;97569.25;4120013;28;20023;-69
2020/12/28 03:53:54;;;;;;;9.68;3.17;;;4.60;99.90;;;4.08;85.12;97568.75;4086823;29;20036;-69
2020/12/28 03:55:55;;;;;;;6.47;2.63;;;4.60;99.90;;;4.12;85.01;97559.53;4086974;29;20408;-69
2020/12/28 03:57:55;;;;;;;6.18;2.42;;;4.60;99.90;;;4.23;84.36;97569.44;4119574;28;20034;-69
2020/12/28 03:59:56;;;;;;;13.52;3.95;;;4.70;99.90;;;4.16;84.47;97567.78;4119906;28;20031;-69
2020/12/28 04:01:57;;;;;;;11.15;3.00;;;4.70;99.90;;;3.92;85.19;97571.66;4101742;28;20043;-69
2020/12/28 04:03:58;;;;;;;9.35;3.33;;;4.70;99.90;;;4.05;84.76;97569.16;4118574;28;20558;-69
2020/12/28 04:06:01;;;;;;;11.93;3.45;;;4.70;99.90;;;4.11;85.10;97578.81;4120003;28;20031;-68
2020/12/28 04:08:06;;;;;;;3.00;2.20;;;4.60;99.90;;;4.01;85.26;97586.16;4102900;28;20046;-69
2020/12/28 04:10:06;;;;;;;;;;;4.60;99.90;;;4.03;84.49;97581.59;4120148;28;20031;-69
2020/12/28 04:12:07;;;;;;;6.32;2.30;;;4.60;99.90;;;4.03;84.87;97586.81;4119380;28;20298;-69
2020/12/28 04:14:08;;;;;;;12.48;3.58;;;4.60;99.90;;;3.98;85.43;97593.56;4119799;28;20114;-69
2020/12/28 04:16:09;;;;;;;8.68;2.75;;;4.60;99.90;;;3.92;85.61;97582.09;4102608;29;20051;-69
2020/12/28 04:18:10;;;;;;;6.40;2.72;;;4.50;99.90;;;4.06;84.50;97578.56;4119575;28;20034;-69
2020/12/28 04:20:11;;;;;;;9.65;3.30;;;4.60;99.90;;;3.93;84.54;97581.09;4102430;29;20498;-69
2020/12/28 04:22:12;;;;;;;7.70;2.75;;;4.60;99.90;;;3.83;86.02;97589.25;4119917;28;20089;-69
2020/12/28 04:24:15;;;;;;;7.70;2.30;;;4.60;99.90;;;3.79;86.10;97587.25;4119666;28;20022;-69
2020/12/28 04:26:16;;;;;;;6.70;2.83;;;4.50;99.90;;;3.83;85.85;97580.63;4119537;28;20406;-69
2020/12/28 04:28:17;;;;;;;3.50;2.45;;;4.50;99.90;;;3.94;85.91;97579.31;4119311;28;20031;-69
2020/12/28 04:30:18;;;;;;;7.22;2.75;;;4.50;99.90;;;3.97;85.14;97569.31;4102497;28;20498;-68
2020/12/28 04:32:19;;;;;;;8.57;2.47;;;4.50;99.90;;;3.88;85.93;97573.06;4119576;28;20034;-69
2020/12/28 04:34:20;;;;;;;9.07;2.55;;;4.40;99.90;;;3.85;86.01;97578.66;4102467;28;20039;-69
2020/12/28 04:36:20;;;;;;;9.13;2.80;;;4.40;99.90;;;3.96;85.50;97585.94;4102429;29;20108;-69
2020/12/28 04:38:21;;;;;;;6.97;2.60;;;4.50;99.90;;;3.71;86.28;97588.16;4119316;28;20038;-69
2020/12/28 04:40:22;;;;;;;7.80;2.72;;;4.50;99.90;;;3.90;85.93;97603.16;4102436;29;20027;-69
2020/12/28 04:42:29;;;;;;;10.48;3.45;;;4.50;99.90;;;3.75;86.07;97594.63;4102054;28;20053;-69
2020/12/28 04:44:30;;;;;;;9.98;2.30;;;4.50;99.90;;;3.73;86.13;97595.81;4102209;29;20082;-69
2020/12/28 04:46:31;;;;;;;7.88;2.00;;;4.50;99.90;;;3.70;86.39;97598.81;4086338;29;20491;-69
2020/12/28 04:48:32;;;;;;;8.07;2.70;;;4.50;99.90;;;3.81;86.44;97590.44;4104816;28;20024;-69
2020/12/28 04:50:35;;;;;;;5.97;3.10;;;4.50;99.90;;;3.56;87.28;97577.03;4119474;28;20042;-69
2020/12/28 04:52:37;;;;;;;6.22;2.60;;;4.40;99.90;;;3.81;85.93;97575.63;4086247;29;20050;-69
2020/12/28 04:54:39;;;;;;;6.40;2.80;;;4.40;99.90;;;3.87;85.79;97568.84;4102352;28;20035;-69
2020/12/28 04:56:41;;;;;;;7.55;2.50;;;4.40;99.90;;;3.76;86.17;97566.75;4102050;28;20032;-68
2020/12/28 04:58:42;;;;;;;15.00;2.92;;;4.40;99.90;;;3.80;86.27;97555.75;4102179;28;20035;-69
2020/12/28 05:00:45;;;;;;;6.65;2.75;;;4.40;99.90;;;3.68;86.92;97541.63;4101982;28;20024;-69
2020/12/28 05:02:47;;;;;;;7.78;2.85;;;4.40;99.90;;;3.74;87.07;97553.09;4102456;28;20160;-69
2020/12/28 05:04:49;;;;;;;5.68;2.15;;;4.40;99.90;;;3.76;87.17;97554.50;4086283;29;20082;-68
2020/12/28 05:07:04;;;;;;;8.95;2.50;;;4.40;99.90;;;3.82;86.53;97534.72;4119295;28;20030;-68
2020/12/28 05:09:09;;;;;;;8.80;3.58;;;4.40;99.90;;;3.78;85.73;97543.91;4102088;28;20031;-69
2020/12/28 05:11:13;;;;;;;8.10;3.13;;;4.40;99.90;;;3.63;86.96;97544.03;4102246;28;20028;-68
2020/12/28 05:13:17;;;;;;;6.85;2.33;;;4.40;99.90;;;3.64;87.37;97550.03;4087494;29;20521;-69
2020/12/28 05:15:18;;;;;;;4.38;2.50;;;4.40;99.90;;;3.74;86.65;97551.31;4121066;28;20078;-68
2020/12/28 05:17:19;;;;;;;8.35;2.75;;;4.40;99.90;;;3.69;86.48;97545.88;4105017;28;20031;-69
2020/12/28 05:19:20;;;;;;;8.23;3.03;;;4.40;99.90;;;3.80;85.83;97541.91;4122357;28;20085;-69
2020/12/28 05:21:26;;;;;;;12.68;3.60;;;4.30;99.90;;;3.82;85.81;97558.97;4122013;28;20033;-69
2020/12/28 05:23:27;;;;;;;8.80;3.05;;;4.30;99.90;;;3.77;86.38;97568.34;4089044;29;20281;-69
2020/12/28 05:25:28;;;;;;;9.00;2.67;;;4.30;99.90;;;3.87;85.48;97569.66;4122132;28;20403;-69
2020/12/28 05:27:29;;;;;;;11.40;3.38;;;4.30;99.90;;;3.84;84.93;97551.78;4104719;29;20038;-69
2020/12/28 05:29:30;;;;;;;7.30;2.88;;;4.40;99.90;;;3.63;86.46;97548.41;4104910;29;20019;-69
2020/12/28 05:31:33;;;;;;;5.40;2.85;;;4.40;99.90;;;3.66;86.67;97561.06;4121957;28;20042;-69
2020/12/28 05:33:34;;;;;;;6.43;2.40;;;4.30;99.90;;;3.51;86.94;97570.78;4104645;29;20046;-69
2020/12/28 05:35:36;;;;;;;7.53;2.80;;;4.20;99.90;;;3.34;87.73;97563.22;4122119;28;20039;-69
2020/12/28 05:37:37;;;;;;;7.00;2.53;;;4.20;99.90;;;3.51;88.20;97555.97;4121939;28;20023;-69
2020/12/28 05:39:41;;;;;;;4.57;2.63;;;4.10;99.90;;;3.46;87.64;97568.75;4104707;29;20042;-68
2020/12/28 05:42:12;;;;;;;9.23;2.28;;;4.20;99.90;;;3.46;88.81;97560.13;4121599;28;20085;-69
2020/12/28 05:44:12;;;;;;;5.90;2.17;;;4.20;99.90;;;3.66;87.67;97559.28;4121811;28;20031;-69
2020/12/28 05:46:22;;;;;;;13.95;2.72;;;4.10;99.90;;;3.45;87.72;97555.91;4121765;28;20559;-69
2020/12/28 05:48:24;;;;;;;5.47;2.70;;;4.10;99.90;;;3.54;87.39;97549.56;4121783;28;20535;-69
2020/12/28 05:50:31;;;;;;;7.15;2.58;;;4.10;99.90;;;3.49;88.00;97555.34;4104703;28;20033;-69
2020/12/28 05:52:37;;;;;;;6.97;3.45;;;4.10;99.90;;;3.62;87.08;97537.19;4104545;28;20035;-69
2020/12/28 05:54:39;;;;;;;8.95;2.75;;;4.20;99.90;;;3.48;87.86;97530.28;4121867;28;20037;-69
2020/12/28 05:56:42;;;;;;;6.80;2.40;;;4.10;99.90;;;3.57;87.25;97536.16;4104295;29;20035;-69
2020/12/28 05:58:45;;;;;;;3.00;2.07;;;4.20;99.90;;;3.61;87.40;97534.78;4104462;28;20111;-69
2020/12/28 06:00:49;;;;;;;7.38;3.25;;;4.20;99.90;;;3.62;88.39;97538.97;4121547;28;20273;-69
2020/12/28 06:02:50;;;;;;;13.18;3.42;;;4.20;99.90;;;3.63;87.50;97541.41;4088543;29;20028;-69
2020/12/28 06:04:54;;;;;;;16.13;2.60;;;4.20;99.90;;;3.80;87.04;97526.25;4088572;29;20078;-69
2020/12/28 06:07:03;;;;;;;8.63;2.78;;;4.20;99.90;;;3.59;87.51;97513.28;4120449;28;20038;-69
2020/12/28 06:09:04;;;;;;;2.95;1.83;;;4.20;99.90;;;3.51;88.97;97497.81;4120146;28;20052;-69
2020/12/28 06:11:05;;;;;;;8.35;2.67;;;4.10;99.90;;;3.44;89.27;97502.16;4121553;28;20027;-69
2020/12/28 06:13:06;;;;;;;4.63;2.42;;;4.10;99.90;;;3.52;87.92;97486.41;4104040;29;20027;-69
2020/12/28 06:15:20;;;;;;;4.93;2.40;;;4.10;99.90;;;3.57;88.85;97508.28;4088280;29;20072;-69
2020/12/28 06:17:35;;;;;;;5.45;2.10;;;4.20;99.90;;;3.68;87.43;97509.53;4104278;29;20460;-69
2020/12/28 06:19:38;;;;;;;5.25;1.80;;;4.20;99.90;;;3.74;86.75;97495.75;4104580;28;20035;-69
2020/12/28 06:21:39;;;;;;;3.58;1.90;;;4.20;99.90;;;3.74;88.32;97500.97;4121310;28;20030;-69
2020/12/28 06:23:49;;;;;;;3.78;1.95;;;4.30;99.90;;;3.96;86.99;97493.88;4103799;28;20031;-69
2020/12/28 06:25:55;;;;;;;3.75;2.38;;;4.40;99.90;;;3.78;87.13;97491.78;4103439;28;20024;-69
2020/12/28 06:27:56;;;;;;;4.93;2.75;;;4.40;99.90;;;3.85;87.54;97492.63;4087851;29;20124;-69
2020/12/28 06:30:15;;;;;;;3.30;1.80;;;4.40;99.90;;;3.83;88.28;97494.59;4103749;28;20031;-69
2020/12/28 06:32:16;;;;;;;4.93;1.90;;;4.40;99.90;;;4.00;86.69;97505.53;4103996;28;20023;-69
2020/12/28 06:34:19;;;;;;;7.85;2.72;;;4.50;99.90;;;3.91;85.73;97507.50;4087943;29;20110;-69
2020/12/28 06:36:19;;;;;;;3.15;2.08;;;4.50;99.90;;;3.76;87.80;97517.25;4103711;28;20499;-69
2020/12/28 06:38:25;;;;;;;10.63;2.20;;;4.50;99.90;;;3.69;87.72;97508.56;4103603;29;20039;-69
2020/12/28 06:40:40;;;;;;;7.05;2.30;;;4.40;99.90;;;3.72;87.43;97509.00;4087678;29;20024;-69
2020/12/28 06:42:41;;;;;;;7.10;3.85;;;4.50;99.90;;;3.81;87.26;97512.25;4120520;28;20402;-69
2020/12/28 06:44:43;;;;;;;4.30;1.88;;;4.50;99.90;;;3.78;88.11;97507.41;4120691;28;20034;-69
2020/12/28 06:46:43;;;;;;;7.63;2.58;;;4.50;99.90;;;3.86;88.05;97494.22;4087718;29;20028;-69
2020/12/28 06:48:44;;;;;;;6.88;2.28;;;4.50;99.90;;;3.98;88.19;97497.88;4106386;28;20095;-69
2020/12/28 06:50:46;;;;;;;7.25;2.30;;;4.50;99.90;;;4.00;88.06;97474.25;4120748;28;20034;-69
2020/12/28 06:52:51;;;;;;;8.60;3.42;;;4.60;99.90;;;4.11;88.04;97469.25;4103535;29;20035;-68
2020/12/28 06:54:52;;;;;;;10.10;2.10;;;4.80;99.90;;;4.30;86.40;97478.94;4087598;29;20107;-69
2020/12/28 06:56:53;;;;;;;5.35;2.08;;;4.70;99.90;;;4.13;86.98;97479.50;4120434;28;20045;-69
2020/12/28 06:58:59;;;;;;;9.02;2.83;;;4.80;99.90;;;4.13;86.66;97474.28;4103413;29;20031;-69
2020/12/28 07:01:04;;;;;;;9.63;2.22;;;4.70;99.90;;;4.26;86.98;97469.13;4120602;28;20394;-69
2020/12/28 07:03:15;;;;;;;6.70;2.58;;;4.80;99.90;;;4.46;86.28;97470.78;4120782;28;20026;-69
2020/12/28 07:05:27;;;;;;;4.35;1.77;;;4.90;99.90;;;4.40;86.08;97465.53;4087497;29;20024;-69
2020/12/28 07:07:28;;;;;;;7.63;3.15;;;5.00;99.90;;;4.35;86.49;97465.34;4104272;28;20410;-69
2020/12/28 07:09:29;;;;;;;7.13;2.42;;;5.00;99.90;;;4.40;85.23;97462.94;4103310;28;20035;-69
2020/12/28 07:11:30;;;;;;;6.28;2.15;;;5.00;99.90;;;4.34;86.89;97455.88;4103116;29;20024;-69
2020/12/28 07:13:32;;;;;;;8.57;2.65;;;4.90;99.90;;;4.50;86.85;97457.34;4103333;29;20447;-69
2020/12/28 07:15:34;;;;;;;7.85;2.90;;;5.00;99.90;;;4.59;86.80;97450.94;4103234;29;20442;-68
2020/12/28 07:17:35;;;;;;;6.47;2.42;;;5.10;99.90;;;4.67;86.40;97437.69;4103333;28;20683;-69
2020/12/28 07:19:35;;;;;;;7.78;2.10;;;5.10;99.90;;;4.70;85.62;97451.16;4103368;28;20034;-69
2020/12/28 07:21:36;;;;;;;6.85;2.30;;;5.20;99.90;;;4.46;86.92;97438.66;4120488;28;20497;-69
2020/12/28 07:23:37;;;;;;;4.90;2.25;;;5.20;99.90;;;4.42;87.80;97432.25;4120304;28;20023;-69
2020/12/28 07:25:38;;;;;;;6.85;2.08;;;5.20;99.90;;;4.70;88.05;97429.44;4120452;28;20035;-69
2020/12/28 07:27:41;;;;;;;10.57;3.15;;;5.20;99.90;;;4.69;87.97;97423.41;4102984;29;20426;-69
2020/12/28 07:29:43;;;;;;;10.45;3.00;;;5.30;99.90;;;4.81;88.19;97400.13;4103284;28;20031;-69
2020/12/28 07:31:45;;;;;;;10.10;2.75;;;5.40;99.90;;;4.79;88.17;97399.53;4118868;28;20084;-69
2020/12/28 07:33:48;;;;;;;10.20;2.75;;;5.50;99.90;;;4.85;88.46;97385.69;4103007;28;20031;-69
2020/12/28 07:35:49;;;;;;;9.13;3.63;;;5.50;99.90;;;4.86;87.84;97395.13;4102974;28;20055;-69
2020/12/28 07:37:50;;;;;;;7.57;3.03;;;5.50;99.90;;;4.92;88.43;97386.47;4102937;29;20128;-69
2020/12/28 07:39:51;;;;;;;11.07;4.55;;;5.50;99.90;;;4.91;88.14;97392.69;4103060;29;20035;-69
2020/12/28 07:41:51;;;;;;;9.88;3.90;;;5.50;99.90;;;4.65;89.63;97366.59;4119798;28;20081;-69
2020/12/28 07:43:59;;;;;;;7.72;3.25;;;5.50;99.90;;;4.79;89.24;97360.38;4120130;28;20031;-69
2020/12/28 07:46:35;;;;;;;11.02;3.35;;;5.50;99.90;;;4.95;89.97;97354.75;4120056;28;20219;-69
2020/12/28 07:48:38;;;;;;;5.32;2.50;;;5.50;99.90;;;4.95;89.53;97344.28;4119985;28;20035;-69
2020/12/28 07:50:39;;;;;;;7.75;2.92;;;5.60;99.90;;;4.99;88.87;97333.22;4102825;28;20043;-69
2020/12/28 07:53:14;;;;;;;9.75;2.88;;;5.60;99.90;;;5.04;89.14;97335.25;4102817;28;20031;-69
2020/12/28 07:55:24;;;;;;;12.18;2.78;;;5.60;99.90;;;5.08;89.26;97331.19;4102999;28;20031;-69
2020/12/28 07:58:01;;;;;;;9.27;2.65;;;5.70;99.90;;;5.06;90.59;97335.81;4102532;28;20036;-69
2020/12/28 08:00:07;;;;;;;11.73;3.75;;;5.70;99.90;;;5.00;91.57;97318.34;4120147;28;20553;-68
2020/12/28 08:02:42;;;;;;;15.13;3.35;;;5.70;99.90;;;5.11;91.62;97328.16;4102728;29;20027;-69
2020/12/28 08:04:43;;;;;;;11.32;5.00;;;5.80;99.90;;;5.20;92.04;97316.50;4102460;29;20027;-69
2020/12/28 08:06:46;;;;;;;19.10;3.97;;;5.90;99.90;;;5.24;92.58;97306.44;4118766;28;20070;-69
2020/12/28 08:08:47;;;;;;;15.90;4.65;;;5.90;99.90;;;5.32;92.28;97298.38;4102753;28;20046;-69
2020/12/28 08:10:55;;;;;;;12.43;3.58;;;6.00;99.90;;;5.30;92.70;97295.97;4118559;28;20483;-69
2020/12/28 08:12:59;;;;;;;23.73;3.85;;;6.00;99.90;;;5.44;92.66;97281.84;4086570;29;20042;-69
2020/12/28 08:15:00;;;;;;;21.08;4.95;;;6.10;99.90;;;5.43;92.34;97284.66;4102852;28;20031;-69
2020/12/28 08:17:09;;;;;;;28.58;5.40;;;6.20;99.90;;;5.58;92.84;97275.53;4106455;28;20041;-69
2020/12/28 08:19:10;;;;;;;16.90;4.70;;;6.30;99.90;;;5.72;92.32;97265.81;4102587;29;20023;-69
2020/12/28 08:21:11;;;;;;;21.35;4.85;;;6.30;99.90;;;5.79;92.39;97255.31;4086334;29;20483;-69
2020/12/28 08:23:12;;;;;;;21.83;4.68;;;6.40;99.90;;;5.83;92.29;97266.94;4102093;29;20027;-69
2020/12/28 08:25:13;;;;;;;13.65;4.10;;;6.50;99.90;;;6.01;91.95;97270.50;4119194;28;20523;-69
2020/12/28 08:27:17;;;;;;;23.75;5.28;;;6.60;99.90;;;6.01;91.45;97256.59;4119309;28;20058;-69
2020/12/28 08:29:18;;;;;;;23.40;5.75;;;6.70;99.90;;;6.22;91.38;97253.63;4119752;28;20023;-69
2020/12/28 08:31:34;;;;;;;23.17;5.32;;;6.80;99.90;;;6.35;91.05;97244.88;4118676;28;20110;-70
2020/12/28 08:33:35;;;;;;;24.20;5.15;;;7.00;99.90;;;6.62;90.48;97247.06;4093742;28;20030;-69
2020/12/28 08:35:50;;;;;;;24.73;5.55;;;7.20;99.90;;;6.66;90.51;97240.34;4116719;28;20039;-70
2020/12/28 08:37:52;;;;;;;;;;;7.30;99.90;;;6.82;90.45;97220.66;4114620;28;20483;-69
2020/12/28 08:39:53;;;;;;;19.73;6.22;;;7.50;99.90;;;6.96;89.61;97213.47;4117386;28;19910;-69
2020/12/28 08:42:02;;;;;;;17.13;4.68;;;7.60;99.90;;;6.98;89.71;97222.69;4117571;28;20059;-69
2020/12/28 08:44:03;;;;;;;19.02;5.13;;;7.70;99.90;;;7.07;90.04;97216.16;4119206;28;20031;-69
2020/12/28 08:46:05;;;;;;;20.00;4.13;;;7.80;99.90;;;7.06;91.40;97216.34;4119147;28;20078;-69
2020/12/28 08:48:06;;;;;;;23.08;4.45;;;7.90;99.90;;;7.02;91.97;97202.06;4106119;28;20611;-69